createdAt,value
2023-03-15T00:00:59.679Z,94892.16
2023-03-15T00:04:06.089Z,94891.13
2023-03-15T00:07:08.837Z,94887.69
2023-03-15T00:10:12.618Z,94895.56
2023-03-15T00:13:16.479Z,94902.69
2023-03-15T00:16:19.075Z,94906.34
2023-03-15T00:19:22.997Z,94907.94
2023-03-15T00:22:26.046Z,94915.84
2023-03-15T00:25:29.074Z,94915.03
2023-03-15T00:28:31.713Z,94919.50
2023-03-15T00:31:35.852Z,94914.25
2023-03-15T00:34:39.971Z,94915.84
2023-03-15T00:37:42.404Z,94919.50
2023-03-15T00:40:44.910Z,94918.47
2023-03-15T00:43:51.138Z,94917.66
2023-03-15T00:46:53.972Z,94917.66
2023-03-15T00:49:58.023Z,94926.38
2023-03-15T00:53:01.303Z,94924.78
2023-03-15T00:56:13.855Z,94925.56
2023-03-15T00:59:16.443Z,94935.28
2023-03-15T01:05:41.420Z,94942.16
2023-03-15T01:08:49.513Z,94949.25
2023-03-15T01:11:52.272Z,94948.44
2023-03-15T01:14:54.979Z,94952.13
2023-03-15T01:17:57.776Z,94957.13
2023-03-15T01:21:02.315Z,94960.00
2023-03-15T01:24:05.456Z,94961.59
2023-03-15T01:27:07.888Z,94953.72
2023-03-15T01:30:11.619Z,94968.72
2023-03-15T01:33:14.135Z,94961.59
2023-03-15T01:36:18.647Z,94965.03
2023-03-15T01:39:21.359Z,94964.47
2023-03-15T01:42:23.919Z,94969.50
2023-03-15T01:45:59.220Z,94976.34
2023-03-15T01:49:06.767Z,94974.75
2023-03-15T01:52:15.428Z,94977.41
2023-03-15T01:55:21.668Z,94973.97
2023-03-15T01:58:26.874Z,94967.91
2023-03-15T02:01:31.201Z,94975.00
2023-03-15T02:04:40.526Z,94977.41
2023-03-15T02:07:49.790Z,94983.69
2023-03-15T02:10:54.604Z,94981.06
2023-03-15T02:13:58.742Z,94981.06
2023-03-15T02:17:01.166Z,94976.59
2023-03-15T02:20:13.370Z,94973.16
2023-03-15T02:23:19.897Z,94973.97
2023-03-15T02:26:30.657Z,94971.59
2023-03-15T02:29:34.684Z,94978.44
2023-03-15T02:32:37.216Z,94982.91
2023-03-15T02:35:39.855Z,94991.84
2023-03-15T02:38:42.283Z,94994.47
2023-03-15T02:41:47.857Z,94995.25
2023-03-15T02:44:52.925Z,95006.03
2023-03-15T02:47:56.195Z,94998.13
2023-03-15T02:50:58.720Z,95009.44
2023-03-15T02:54:01.368Z,95007.88
2023-03-15T02:57:05.647Z,95027.06
2023-03-15T03:00:14.448Z,95021.03
2023-03-15T03:03:16.981Z,95028.13
2023-03-15T03:06:19.712Z,95031.53
2023-03-15T03:09:22.322Z,95037.59
2023-03-15T03:12:24.848Z,95034.16
2023-03-15T03:15:28.785Z,95043.91
2023-03-15T03:18:35.672Z,95052.59
2023-03-15T03:21:38.121Z,95056.81
2023-03-15T03:24:46.316Z,95051.56
2023-03-15T03:27:48.901Z,95065.50
2023-03-15T03:30:52.829Z,95062.09
2023-03-15T03:33:57.224Z,95063.66
2023-03-15T03:37:01.476Z,95068.13
2023-03-15T03:40:07.718Z,95073.41
2023-03-15T03:43:10.858Z,95069.72
2023-03-15T03:46:14.742Z,95067.09
2023-03-15T03:49:17.253Z,95071.56
2023-03-15T03:52:19.776Z,95083.69
2023-03-15T03:55:25.174Z,95076.81
2023-03-15T03:58:27.764Z,95081.06
2023-03-15T04:01:31.671Z,95091.59
2023-03-15T04:04:34.401Z,95094.22
2023-03-15T04:07:37.156Z,95107.38
2023-03-15T04:10:39.862Z,95112.63
2023-03-15T04:13:42.451Z,95118.69
2023-03-15T04:16:46.271Z,95124.75
2023-03-15T04:19:48.785Z,95136.31
2023-03-15T04:22:51.217Z,95139.75
2023-03-15T04:25:55.140Z,95145.81
2023-03-15T04:28:59.229Z,95146.59
2023-03-15T04:32:03.208Z,95144.22
2023-03-15T04:35:06.831Z,95150.03
2023-03-15T04:38:10.114Z,95157.91
2023-03-15T04:41:12.649Z,95159.75
2023-03-15T04:44:16.330Z,95152.91
2023-03-15T04:47:20.641Z,95156.56
2023-03-15T04:50:23.884Z,95167.88
2023-03-15T04:53:26.724Z,95168.94
2023-03-15T04:56:30.077Z,95172.59
2023-03-15T04:59:32.958Z,95178.09
2023-03-15T05:02:40.003Z,95175.72
2023-03-15T05:05:42.920Z,95182.03
2023-03-15T05:08:47.240Z,95191.75
2023-03-15T05:11:50.142Z,95190.97
2023-03-15T05:14:54.316Z,95186.72
2023-03-15T05:18:06.658Z,95197.25
2023-03-15T05:21:11.280Z,95199.09
2023-03-15T05:24:17.527Z,95204.34
2023-03-15T05:27:21.707Z,95212.47
2023-03-15T05:30:24.575Z,95213.28
2023-03-15T05:33:29.862Z,95215.91
2023-03-15T05:36:33.774Z,95223.00
2023-03-15T05:39:36.402Z,95228.28
2023-03-15T05:42:38.977Z,95238.00
2023-03-15T05:45:42.356Z,95246.69
2023-03-15T05:48:48.508Z,95250.91
2023-03-15T05:51:51.089Z,95258.25
2023-03-15T05:54:53.578Z,95252.97
2023-03-15T05:57:56.100Z,95260.88
2023-03-15T06:04:45.932Z,95272.91
2023-03-15T06:07:51.138Z,95278.16
2023-03-15T06:10:53.999Z,95272.09
2023-03-15T06:13:56.517Z,95281.81
2023-03-15T06:17:01.345Z,95275.00
2023-03-15T06:20:07.095Z,95280.25
2023-03-15T06:23:09.908Z,95289.19
2023-03-15T06:26:15.155Z,95292.63
2023-03-15T06:29:18.321Z,95297.06
2023-03-15T06:32:29.801Z,95304.97
2023-03-15T06:35:34.157Z,95309.44
2023-03-15T06:38:36.908Z,95307.59
2023-03-15T06:41:40.042Z,95309.44
2023-03-15T06:44:43.635Z,95312.06
2023-03-15T06:47:46.118Z,95318.13
2023-03-15T06:50:49.971Z,95314.69
2023-03-15T06:53:52.661Z,95318.34
2023-03-15T06:56:55.329Z,95317.56
2023-03-15T06:59:57.884Z,95329.69
2023-03-15T07:03:00.632Z,95323.84
2023-03-15T07:06:05.483Z,95322.81
2023-03-15T07:09:08.825Z,95337.81
2023-03-15T07:12:12.158Z,95330.72
2023-03-15T07:15:16.694Z,95334.94
2023-03-15T07:18:19.829Z,95327.28
2023-03-15T07:21:27.657Z,95330.72
2023-03-15T07:24:30.830Z,95343.06
2023-03-15T07:27:33.266Z,95343.06
2023-03-15T07:30:35.869Z,95342.25
2023-03-15T07:33:39.476Z,95342.25
2023-03-15T07:36:43.312Z,95342.25
2023-03-15T07:39:46.587Z,95342.25
2023-03-15T07:42:49.132Z,95355.41
2023-03-15T07:45:52.550Z,95346.72
2023-03-15T07:48:55.068Z,95358.03
2023-03-15T07:51:59.087Z,95357.25
2023-03-15T07:55:01.551Z,95354.63
2023-03-15T07:58:04.520Z,95352.78
2023-03-15T08:01:12.791Z,95350.38
2023-03-15T08:05:08.020Z,95355.66
2023-03-15T08:08:24.605Z,95361.94
2023-03-15T08:11:27.926Z,95368.00
2023-03-15T08:19:10.237Z,95374.28
2023-03-15T08:22:12.981Z,95388.25
2023-03-15T08:25:20.425Z,95383.78
2023-03-15T08:28:23.478Z,95390.88
2023-03-15T08:31:27.000Z,95401.41
2023-03-15T08:34:30.814Z,95402.44
2023-03-15T08:37:34.465Z,95409.28
2023-03-15T08:40:39.873Z,95414.78
2023-03-15T08:43:42.472Z,95413.97
2023-03-15T08:46:45.039Z,95423.16
2023-03-15T08:49:47.684Z,95420.53
2023-03-15T08:52:52.580Z,95419.47
2023-03-15T08:55:56.525Z,95430.78
2023-03-15T08:58:59.263Z,95423.97
2023-03-15T09:02:02.210Z,95424.75
2023-03-15T09:05:07.179Z,95429.78
2023-03-15T09:08:10.004Z,95427.38
2023-03-15T09:11:13.937Z,95430.00
2023-03-15T09:14:16.748Z,95439.50
2023-03-15T09:17:19.325Z,95436.84
2023-03-15T09:20:28.056Z,95439.50
2023-03-15T09:23:30.496Z,95450.00
2023-03-15T09:26:34.401Z,95446.34
2023-03-15T09:29:37.284Z,95442.13
2023-03-15T09:32:39.906Z,95455.28
2023-03-15T09:35:43.468Z,95450.00
2023-03-15T09:38:47.827Z,95454.47
2023-03-15T09:41:54.391Z,95458.94
2023-03-15T09:45:05.927Z,95458.94
2023-03-15T09:48:12.938Z,95459.72
2023-03-15T09:51:21.848Z,95462.38
2023-03-15T09:54:29.492Z,95464.19
2023-03-15T09:57:42.078Z,95464.19
2023-03-15T10:00:46.737Z,95462.38
2023-03-15T10:03:51.000Z,95469.44
2023-03-15T10:06:56.312Z,95478.16
2023-03-15T10:09:59.173Z,95479.97
2023-03-15T10:13:20.395Z,95474.72
2023-03-15T10:16:33.365Z,95470.25
2023-03-15T10:19:45.934Z,95473.94
2023-03-15T10:22:53.501Z,95471.31
2023-03-15T10:25:56.407Z,95464.19
2023-03-15T10:29:03.480Z,95471.31
2023-03-15T10:32:07.588Z,95468.69
2023-03-15T10:35:16.445Z,95473.94
2023-03-15T10:38:22.123Z,95468.69
2023-03-15T10:41:39.240Z,95475.78
2023-03-15T10:44:43.069Z,95472.09
2023-03-15T10:47:57.624Z,95467.88
2023-03-15T10:51:05.635Z,95471.31
2023-03-15T10:54:13.373Z,95468.69
2023-03-15T10:57:19.231Z,95474.72
2023-03-15T11:00:31.293Z,95479.22
2023-03-15T11:03:35.009Z,95486.03
2023-03-15T11:06:41.068Z,95481.84
2023-03-15T11:09:45.771Z,95476.56
2023-03-15T11:12:48.326Z,95486.28
2023-03-15T11:16:04.096Z,95483.66
2023-03-15T11:19:16.154Z,95488.94
2023-03-15T11:22:18.616Z,95489.72
2023-03-15T11:25:25.078Z,95493.13
2023-03-15T11:28:30.815Z,95497.63
2023-03-15T11:31:35.098Z,95495.75
2023-03-15T11:34:42.372Z,95495.00
2023-03-15T11:37:50.001Z,95495.75
2023-03-15T11:40:57.140Z,95485.25
2023-03-15T11:44:07.472Z,95485.25
2023-03-15T11:47:17.615Z,95479.97
2023-03-15T11:50:20.705Z,95486.84
2023-03-15T11:53:26.817Z,95477.34
2023-03-15T11:56:45.794Z,95481.56
2023-03-15T11:59:49.050Z,95474.72
2023-03-15T12:02:56.264Z,95479.97
2023-03-15T12:06:05.418Z,95474.72
2023-03-15T12:09:57.597Z,95471.06
2023-03-15T12:13:08.625Z,95474.72
2023-03-15T12:16:14.443Z,95477.34
2023-03-15T12:19:20.140Z,95470.50
2023-03-15T12:22:24.032Z,95473.94
2023-03-15T12:25:37.243Z,95481.84
2023-03-15T12:28:51.427Z,95466.81
2023-03-15T12:32:05.451Z,95472.09
2023-03-15T12:35:17.020Z,95469.44
2023-03-15T12:38:23.126Z,95474.72
2023-03-15T12:41:38.269Z,95470.50
2023-03-15T12:44:43.869Z,95473.94
2023-03-15T12:47:47.232Z,95470.50
2023-03-15T12:50:55.130Z,95478.41
2023-03-15T12:53:58.873Z,95478.41
2023-03-15T12:57:03.130Z,95478.63
2023-03-15T13:00:11.968Z,95476.81
2023-03-15T13:03:17.277Z,95476.81
2023-03-15T13:06:35.945Z,95481.03
2023-03-15T13:09:53.999Z,95486.53
2023-03-15T13:13:03.126Z,95487.31
2023-03-15T13:16:22.237Z,95483.09
2023-03-15T13:19:28.452Z,95495.44
2023-03-15T13:22:49.998Z,95494.66
2023-03-15T13:26:14.040Z,95504.94
2023-03-15T13:29:21.204Z,95522.56
2023-03-15T13:32:25.592Z,95527.81
2023-03-15T13:35:28.472Z,95540.97
2023-03-15T13:38:34.290Z,95556.75
2023-03-15T13:41:40.049Z,95557.53
2023-03-15T13:44:43.121Z,95566.47
2023-03-15T13:47:47.857Z,95569.91
2023-03-15T13:50:51.336Z,95570.13
2023-03-15T13:53:57.207Z,61500.28
2023-03-15T13:57:05.083Z,61500.28
2023-03-15T14:00:12.064Z,61500.28
2023-03-15T14:03:17.841Z,61500.28
2023-03-15T14:06:27.014Z,61500.28
2023-03-15T14:09:31.175Z,61500.28
2023-03-15T14:12:33.756Z,61500.28
2023-03-15T14:15:38.025Z,61500.28
2023-03-15T14:18:42.674Z,61500.28
2023-03-15T14:21:47.763Z,61500.28
2023-03-15T14:24:53.439Z,61500.28
2023-03-15T14:27:56.135Z,61500.28
2023-03-15T14:31:00.145Z,61500.28
2023-03-15T14:34:09.844Z,61500.28
2023-03-15T14:37:37.712Z,61500.28
2023-03-15T14:40:43.087Z,61500.28
2023-03-15T14:43:45.740Z,61500.28
2023-03-15T14:46:50.536Z,61500.28
2023-03-15T14:49:53.404Z,61500.28
2023-03-15T14:52:58.295Z,61500.28
2023-03-15T14:56:02.673Z,61500.28
2023-03-15T14:59:12.398Z,61500.28
2023-03-15T15:02:19.088Z,61500.28
2023-03-15T15:05:25.400Z,61500.28
2023-03-15T15:08:28.496Z,61500.28
2023-03-15T15:11:33.059Z,61500.28
2023-03-15T15:14:35.641Z,61500.28
2023-03-15T15:17:38.175Z,61500.28
2023-03-15T15:20:43.030Z,61500.28
2023-03-15T15:23:57.333Z,61500.28
2023-03-15T15:27:02.268Z,61500.28
2023-03-15T15:30:05.956Z,61500.28
2023-03-15T15:33:08.622Z,61500.28
2023-03-15T15:36:14.591Z,61500.28
2023-03-15T15:39:22.882Z,61500.28
2023-03-15T15:42:26.685Z,61500.28
2023-03-15T15:45:29.375Z,61500.28
2023-03-15T15:48:31.774Z,61500.28
2023-03-15T15:51:38.004Z,61500.28
2023-03-15T15:54:40.551Z,61500.28
2023-03-15T15:57:47.912Z,61500.28
2023-03-15T16:00:50.893Z,61500.28
2023-03-15T16:03:53.619Z,61500.28
2023-03-15T16:06:58.644Z,61500.28
2023-03-15T16:10:01.458Z,61500.28
2023-03-15T16:13:05.656Z,61500.28
2023-03-15T16:16:13.442Z,61500.28
2023-03-15T16:19:19.125Z,61500.28
2023-03-15T16:22:23.819Z,61500.28
2023-03-15T16:25:33.777Z,61500.28
2023-03-15T16:28:37.735Z,61500.28
2023-03-15T16:31:40.379Z,61500.28
2023-03-15T16:34:42.968Z,61500.28
2023-03-15T16:37:46.908Z,61500.28
2023-03-15T16:40:52.928Z,61500.28
2023-03-15T16:43:56.898Z,61500.28
2023-03-15T16:46:59.449Z,61500.28
2023-03-15T16:50:01.961Z,61500.28
2023-03-15T16:53:08.004Z,61500.28
2023-03-15T16:56:12.773Z,61500.28
2023-03-15T16:59:18.814Z,61500.28
2023-03-15T17:02:24.515Z,61500.28
2023-03-15T17:05:27.700Z,61500.28
2023-03-15T17:08:30.511Z,61500.28
2023-03-15T17:11:33.963Z,61500.28
2023-03-15T17:14:38.918Z,61500.28
2023-03-15T17:17:41.322Z,61500.28
2023-03-15T17:20:43.887Z,61500.28
2023-03-15T17:23:47.755Z,61500.28
2023-03-15T17:26:50.460Z,61500.28
2023-03-15T17:29:54.639Z,61500.28
2023-03-15T17:32:57.541Z,61500.28
2023-03-15T17:36:00.329Z,61500.28
2023-03-15T17:39:04.358Z,61500.28
2023-03-15T17:42:07.282Z,61500.28
2023-03-15T17:45:20.724Z,61500.28
2023-03-15T17:59:16.076Z,61500.28
2023-03-15T18:02:19.198Z,61500.28
2023-03-15T18:05:24.370Z,61500.28
2023-03-15T19:23:22.053Z,95852.50
2023-03-15T19:26:24.785Z,95859.16
2023-03-15T19:29:27.294Z,95858.13
2023-03-15T19:32:29.986Z,95866.16
2023-03-15T19:35:33.699Z,95868.56
2023-03-15T19:38:38.772Z,95878.63
2023-03-15T19:41:42.791Z,95875.78
2023-03-15T19:44:47.415Z,95885.06
2023-03-15T19:47:49.955Z,95886.66
2023-03-15T19:50:52.609Z,95885.63
2023-03-15T19:53:56.648Z,95892.50
2023-03-15T19:56:59.788Z,95901.78
2023-03-15T20:00:02.446Z,95899.16
2023-03-15T20:03:05.645Z,95908.66
2023-03-15T20:06:09.420Z,95907.63
2023-03-15T20:09:13.439Z,95916.31
2023-03-15T20:12:16.476Z,95914.50
2023-03-15T20:15:21.084Z,95924.78
2023-03-15T20:18:23.825Z,95918.72
2023-03-15T20:21:26.750Z,95928.44
2023-03-15T20:24:30.787Z,95924.78
2023-03-15T20:27:34.133Z,95923.78
2023-03-15T20:30:43.278Z,95928.22
2023-03-15T20:33:49.936Z,95927.19
2023-03-15T20:36:53.250Z,95937.69
2023-03-15T20:39:57.658Z,95935.06
2023-03-15T20:43:00.269Z,95944.56
2023-03-15T20:46:04.285Z,95939.31
2023-03-15T20:49:07.267Z,95947.19
2023-03-15T20:52:10.052Z,95941.94
2023-03-15T20:55:15.177Z,95952.47
2023-03-15T20:58:17.937Z,95947.19
2023-03-15T21:01:21.115Z,95950.63
2023-03-15T21:04:26.103Z,95949.84
2023-03-15T21:07:28.614Z,95955.91
2023-03-15T21:10:32.669Z,95954.06
2023-03-15T21:13:36.060Z,95965.41
2023-03-15T21:16:38.696Z,95965.41
2023-03-15T21:19:41.847Z,95961.97
2023-03-15T21:22:44.288Z,95960.34
2023-03-15T21:25:54.217Z,95959.56
2023-03-15T21:28:56.644Z,95964.25
2023-03-15T21:31:59.730Z,95971.34
2023-03-15T21:35:02.545Z,95968.72
2023-03-15T21:38:05.094Z,95974.19
2023-03-15T21:41:11.302Z,95980.25
2023-03-15T21:44:13.812Z,95980.25
2023-03-15T21:47:17.963Z,95981.88
2023-03-15T21:50:23.282Z,95981.88
2023-03-15T21:53:26.129Z,95981.88
2023-03-15T21:56:30.082Z,95987.94
2023-03-15T21:59:32.604Z,95987.13
2023-03-15T22:02:36.017Z,95988.97
2023-03-15T22:05:38.494Z,95997.66
2023-03-15T22:08:41.870Z,95987.13
2023-03-15T22:11:45.940Z,95995.03
2023-03-15T22:14:56.852Z,95997.66
2023-03-15T22:18:07.235Z,96004.75
2023-03-15T22:21:09.916Z,96007.38
2023-03-15T22:24:12.662Z,96009.19
2023-03-15T22:27:16.665Z,96007.38
2023-03-15T22:30:19.360Z,96004.75
2023-03-15T22:33:22.667Z,96009.19
2023-03-15T22:36:25.349Z,96008.19
2023-03-15T22:39:28.024Z,96007.38
2023-03-15T22:42:31.955Z,96006.56
2023-03-15T22:45:34.509Z,96009.19
2023-03-15T22:48:37.123Z,96015.25
2023-03-15T22:51:42.314Z,96011.81
2023-03-15T22:54:44.877Z,96011.03
2023-03-15T22:57:49.151Z,96019.72
2023-03-15T23:00:51.792Z,96021.53
2023-03-15T23:03:54.466Z,96024.97
2023-03-15T23:06:56.945Z,96027.63
2023-03-15T23:09:59.692Z,96026.81
2023-03-15T23:13:03.704Z,96027.63
2023-03-15T23:16:06.827Z,96032.28
2023-03-15T23:19:10.296Z,96033.09
2023-03-15T23:22:13.050Z,96032.28
2023-03-15T23:25:19.570Z,96028.03
2023-03-15T23:28:24.395Z,96029.66
2023-03-15T23:31:27.113Z,96034.09
2023-03-15T23:34:31.018Z,96030.66
2023-03-15T23:37:34.452Z,96037.75
2023-03-15T23:40:37.410Z,96043.03
2023-03-15T23:43:41.572Z,96039.38
2023-03-15T23:46:44.214Z,96039.59
2023-03-15T23:49:46.716Z,96042.22
2023-03-15T23:52:49.428Z,96044.84
2023-03-15T23:55:52.575Z,96046.47
2023-03-15T23:58:56.572Z,96053.53
